Terminal Aerodrome Forecast
Issued by NWS North Platte, NE

Home | Current Version | Previous Version | Graphics & Text | Print | Product List | Glossary On
Versions: 1 2 3 4 5 6 7 8 9 10 11 12 13 14 15 16
000
FTUS43 KLBF 011400 AAA
TAFVTN
TAF AMD
KVTN 011428Z 0114/0212 20013KT P6SM BKN150
     FM011600 17014G21KT P6SM FEW050 SCT200
     FM020100 17013G19KT P6SM BKN060=

USA.gov is the U.S. government's official web portal to all federal, state and local government web resources and services.